Time;durP1;ratioP1;P1;durP2;ratioP2;P2;SDS_P1;SDS_P2;PMS_P1;PMS_P2;Temp;Humidity;BMP_temperature;BMP_pressure;BME280_temperature;BME280_humidity;BME280_pressure;Samples;Min_cycle;Max_cycle;Signal;HPM_P1;HPM_P2
2020/12/17 00:02:01;;;;;;;31.90;17.30;;;7.80;99.90;;;;;;5043931;28;20494;-77
2020/12/17 00:04:27;;;;;;;26.97;16.80;;;7.80;99.90;;;;;;5044215;28;20740;-78
2020/12/17 00:06:55;;;;;;;31.17;15.90;;;7.80;99.90;;;;;;5041652;28;20880;-78
2020/12/17 00:09:21;;;;;;;23.47;15.27;;;7.90;99.90;;;;;;5039998;28;20537;-78
2020/12/17 00:11:47;;;;;;;31.50;15.80;;;7.80;99.90;;;;;;5044457;28;20443;-78
2020/12/17 00:14:14;;;;;;;32.07;16.30;;;7.80;99.90;;;;;;5047376;28;20447;-78
2020/12/17 00:16:40;;;;;;;25.30;15.00;;;7.80;99.90;;;;;;5061602;28;20425;-78
2020/12/17 00:19:06;;;;;;;29.63;15.80;;;7.80;99.90;;;;;;5042014;28;20500;-78
2020/12/17 00:21:35;;;;;;;24.50;14.50;;;7.70;99.90;;;;;;5045902;28;20756;-78
2020/12/17 00:24:01;;;;;;;24.53;15.57;;;7.70;99.90;;;;;;5048890;28;20428;-78
2020/12/17 00:26:27;;;;;;;22.97;14.60;;;7.70;99.90;;;;;;5045243;28;20520;-78
2020/12/17 00:28:53;;;;;;;24.83;14.20;;;7.70;99.90;;;;;;5046676;28;20443;-78
2020/12/17 00:31:19;;;;;;;23.83;14.10;;;7.70;99.90;;;;;;5051436;28;20176;-78
2020/12/17 00:33:46;;;;;;;26.67;14.90;;;7.70;99.90;;;;;;5048508;28;20447;-78
2020/12/17 00:36:20;;;;;;;28.60;15.47;;;7.70;99.90;;;;;;5049310;28;20432;-78
2020/12/17 00:38:47;;;;;;;20.80;13.60;;;7.70;99.90;;;;;;5047934;28;20902;-77
2020/12/17 00:41:14;;;;;;;27.60;15.07;;;7.70;99.90;;;;;;5046736;28;20807;-78
2020/12/17 00:43:41;;;;;;;26.17;14.30;;;7.70;99.90;;;;;;5048581;28;20483;-78
2020/12/17 00:46:07;;;;;;;25.07;15.77;;;7.70;99.90;;;;;;5045212;28;20452;-78
2020/12/17 00:48:33;;;;;;;24.87;14.00;;;7.60;99.90;;;;;;5048984;28;20441;-78
2020/12/17 00:51:00;;;;;;;23.63;13.80;;;7.60;99.90;;;;;;5045802;28;20188;-78
2020/12/17 00:53:26;;;;;;;23.80;15.17;;;7.50;99.90;;;;;;5049224;28;20538;-78
2020/12/17 00:55:51;;;;;;;22.83;14.80;;;7.50;99.90;;;;;;5049496;28;20562;-78
2020/12/17 00:58:17;;;;;;;22.50;13.90;;;7.40;99.90;;;;;;5047736;28;20436;-78
2020/12/17 01:00:43;;;;;;;24.97;15.03;;;7.40;99.90;;;;;;5046573;28;20906;-78
2020/12/17 01:03:09;;;;;;;22.63;12.43;;;7.40;99.90;;;;;;5043375;28;20190;-78
2020/12/17 01:05:35;;;;;;;23.00;12.37;;;7.40;99.90;;;;;;5048860;28;20299;-78
2020/12/17 01:08:01;;;;;;;22.13;13.30;;;7.40;99.90;;;;;;5046048;28;20549;-78
2020/12/17 01:10:26;;;;;;;22.43;12.83;;;7.30;99.90;;;;;;5045589;28;20169;-78
2020/12/17 01:12:53;;;;;;;21.30;13.87;;;7.30;99.90;;;;;;5042438;28;20212;-78
2020/12/17 01:15:18;;;;;;;25.60;13.77;;;7.30;99.90;;;;;;5049426;28;20451;-78
2020/12/17 01:17:44;;;;;;;23.87;13.60;;;7.30;99.90;;;;;;5046287;28;20772;-77
2020/12/17 01:20:10;;;;;;;29.13;14.37;;;7.20;99.90;;;;;;5045893;28;20191;-78
2020/12/17 01:22:36;;;;;;;28.00;13.33;;;7.20;99.90;;;;;;5042978;28;20181;-77
2020/12/17 01:25:02;;;;;;;22.60;13.90;;;7.20;99.90;;;;;;5048974;28;20209;-78
2020/12/17 01:27:31;;;;;;;26.33;14.37;;;7.20;99.90;;;;;;5044012;28;20200;-78
2020/12/17 01:29:57;;;;;;;29.97;15.27;;;7.20;99.90;;;;;;5048797;28;20519;-78
2020/12/17 01:32:22;;;;;;;25.77;14.53;;;7.20;99.90;;;;;;5043392;28;20522;-78
2020/12/17 01:34:49;;;;;;;21.80;12.80;;;7.20;99.90;;;;;;5042715;28;20451;-78
2020/12/17 01:37:15;;;;;;;23.57;15.60;;;7.20;99.90;;;;;;5041314;28;20189;-78
2020/12/17 01:39:40;;;;;;;25.30;13.80;;;7.30;99.90;;;;;;5035795;28;20451;-78
2020/12/17 01:42:06;;;;;;;24.67;14.20;;;7.30;99.90;;;;;;5046222;28;20617;-78
2020/12/17 01:44:32;;;;;;;24.47;14.60;;;7.30;99.90;;;;;;5048013;28;20185;-78
2020/12/17 01:46:58;;;;;;;24.33;13.00;;;7.30;99.90;;;;;;5041638;28;20212;-78
2020/12/17 01:49:26;;;;;;;21.20;13.77;;;7.30;99.90;;;;;;5046621;28;20219;-78
2020/12/17 01:51:55;;;;;;;21.03;13.20;;;7.30;99.90;;;;;;5044575;28;20290;-78
2020/12/17 01:54:22;;;;;;;25.80;13.63;;;7.30;99.90;;;;;;5049448;28;20419;-78
2020/12/17 01:56:53;;;;;;;19.03;12.97;;;7.30;99.90;;;;;;5048656;28;20493;-78
2020/12/17 01:59:22;;;;;;;24.33;14.57;;;7.30;99.90;;;;;;5047894;28;20439;-78
2020/12/17 02:01:50;;;;;;;21.80;13.00;;;7.30;99.90;;;;;;5047127;28;20455;-78
2020/12/17 02:04:18;;;;;;;21.20;13.90;;;7.30;99.90;;;;;;5039411;28;20444;-78
2020/12/17 02:06:45;;;;;;;26.70;13.97;;;7.30;99.90;;;;;;5045074;28;20461;-78
2020/12/17 02:09:10;;;;;;;24.13;14.67;;;7.30;99.90;;;;;;5048149;28;20439;-78
2020/12/17 02:11:36;;;;;;;21.57;13.43;;;7.30;99.90;;;;;;5047262;28;20439;-78
2020/12/17 02:14:02;;;;;;;25.77;13.40;;;7.40;99.90;;;;;;5046902;28;20213;-78
2020/12/17 02:16:28;;;;;;;21.17;14.37;;;7.40;99.90;;;;;;5048638;28;20435;-78
2020/12/17 02:18:54;;;;;;;24.73;14.00;;;7.30;99.90;;;;;;5044684;28;20447;-78
2020/12/17 02:21:20;;;;;;;23.40;13.10;;;7.30;99.90;;;;;;5045288;28;20185;-78
2020/12/17 02:23:46;;;;;;;21.77;12.00;;;7.40;99.90;;;;;;5043549;28;20185;-78
2020/12/17 02:26:12;;;;;;;21.40;12.70;;;7.40;99.90;;;;;;5048338;28;20684;-78
2020/12/17 02:28:38;;;;;;;17.20;13.37;;;7.50;99.90;;;;;;5045627;28;20680;-78
2020/12/17 02:31:04;;;;;;;19.73;13.33;;;7.50;99.90;;;;;;5045000;28;20435;-78
2020/12/17 02:33:30;;;;;;;25.13;13.77;;;7.50;99.90;;;;;;5040495;28;20532;-78
2020/12/17 02:35:55;;;;;;;20.87;13.43;;;7.40;99.90;;;;;;5048435;28;20181;-78
2020/12/17 02:38:22;;;;;;;23.47;15.00;;;7.40;99.90;;;;;;5044490;28;20436;-78
2020/12/17 02:40:52;;;;;;;24.10;14.53;;;7.40;99.90;;;;;;5046362;28;20634;-78
2020/12/17 02:43:18;;;;;;;18.87;11.30;;;7.40;99.90;;;;;;5041866;28;20905;-78
2020/12/17 02:45:48;;;;;;;20.20;12.30;;;7.40;99.90;;;;;;5047187;28;20487;-78
2020/12/17 02:48:14;;;;;;;20.57;13.27;;;7.50;99.90;;;;;;5048571;28;20945;-78
2020/12/17 02:50:40;;;;;;;21.10;13.50;;;7.40;99.90;;;;;;5046647;28;20428;-78
2020/12/17 02:53:08;;;;;;;24.83;14.13;;;7.50;99.90;;;;;;5044045;28;20878;-78
2020/12/17 02:55:35;;;;;;;22.20;13.30;;;7.50;99.90;;;;;;5047837;28;20432;-78
2020/12/17 02:58:01;;;;;;;19.17;12.77;;;7.50;99.90;;;;;;5046261;28;20497;-78
2020/12/17 03:00:26;;;;;;;16.80;11.17;;;7.60;99.90;;;;;;5042489;28;20433;-78
2020/12/17 03:02:52;;;;;;;19.37;12.80;;;7.60;99.90;;;;;;5043330;28;20531;-78
2020/12/17 03:05:18;;;;;;;19.67;13.03;;;7.60;99.90;;;;;;5047212;28;20225;-78
2020/12/17 03:07:44;;;;;;;18.83;12.37;;;7.60;99.90;;;;;;5047282;28;20434;-78
2020/12/17 03:10:12;;;;;;;20.33;13.17;;;7.60;99.90;;;;;;5047811;28;20752;-78
2020/12/17 03:12:47;;;;;;;23.10;13.83;;;7.60;99.90;;;;;;5040758;28;20636;-78
2020/12/17 03:15:13;;;;;;;20.70;12.70;;;7.60;99.90;;;;;;5048835;28;20518;-78
2020/12/17 03:17:40;;;;;;;18.93;12.40;;;7.70;99.90;;;;;;5049874;28;20531;-78
2020/12/17 03:20:07;;;;;;;21.30;12.83;;;7.60;99.90;;;;;;5048643;28;20470;-78
2020/12/17 03:22:33;;;;;;;26.10;13.73;;;7.70;99.90;;;;;;5048355;28;20478;-77
2020/12/17 03:24:59;;;;;;;24.80;13.60;;;7.70;99.90;;;;;;5048097;28;20549;-78
2020/12/17 03:27:25;;;;;;;25.43;15.60;;;7.70;99.90;;;;;;5047575;28;20470;-78
2020/12/17 03:29:51;;;;;;;21.30;13.87;;;7.60;99.90;;;;;;5050443;28;20464;-78
2020/12/17 03:32:17;;;;;;;21.80;13.33;;;7.60;99.90;;;;;;5050151;28;20573;-78
2020/12/17 03:34:43;;;;;;;19.97;12.40;;;7.70;99.90;;;;;;5046209;28;20174;-78
2020/12/17 03:37:09;;;;;;;18.80;12.17;;;7.70;99.90;;;;;;5048659;28;20516;-78
2020/12/17 03:39:35;;;;;;;17.53;13.00;;;7.70;99.90;;;;;;5045310;28;20792;-78
2020/12/17 03:42:01;;;;;;;25.53;12.23;;;7.70;99.90;;;;;;5048178;28;20174;-78
2020/12/17 03:44:27;;;;;;;17.20;12.40;;;7.70;99.90;;;;;;5047336;28;20431;-78
2020/12/17 03:46:53;;;;;;;19.77;12.70;;;7.70;99.90;;;;;;5050548;28;20436;-78
2020/12/17 03:49:19;;;;;;;20.73;12.50;;;7.70;99.90;;;;;;5050069;28;20429;-78
2020/12/17 03:51:45;;;;;;;18.77;11.37;;;7.70;99.90;;;;;;5045462;28;20662;-78
2020/12/17 03:54:11;;;;;;;18.97;11.87;;;7.70;99.90;;;;;;5048955;28;20231;-78
2020/12/17 03:56:36;;;;;;;20.77;14.07;;;7.80;99.90;;;;;;5049315;28;20185;-78
2020/12/17 03:59:02;;;;;;;20.20;12.70;;;7.80;99.90;;;;;;5046058;28;20652;-78
2020/12/17 04:01:28;;;;;;;23.27;13.20;;;7.80;99.90;;;;;;5045781;28;20185;-78
2020/12/17 04:03:54;;;;;;;18.37;12.70;;;7.80;99.90;;;;;;5046647;28;20215;-78
2020/12/17 04:06:19;;;;;;;20.77;12.90;;;7.70;99.90;;;;;;5045769;28;20463;-78
2020/12/17 04:08:45;;;;;;;19.77;13.13;;;7.70;99.90;;;;;;5046358;28;20174;-78
2020/12/17 04:11:11;;;;;;;21.20;13.30;;;7.70;99.90;;;;;;5048726;28;20272;-78
2020/12/17 04:13:37;;;;;;;24.37;13.13;;;7.70;99.90;;;;;;5047262;28;20708;-78
2020/12/17 04:16:06;;;;;;;20.17;12.40;;;7.70;99.90;;;;;;5048637;28;20264;-78
2020/12/17 04:18:32;;;;;;;19.40;12.63;;;7.70;99.90;;;;;;5043126;28;20469;-78
2020/12/17 04:20:57;;;;;;;20.57;12.50;;;7.70;99.90;;;;;;5047871;28;20435;-78
2020/12/17 04:23:23;;;;;;;20.23;12.17;;;7.80;99.90;;;;;;5048561;28;20189;-78
2020/12/17 04:25:49;;;;;;;20.40;12.63;;;7.80;99.90;;;;;;5049510;28;20208;-78
2020/12/17 04:28:15;;;;;;;17.30;11.73;;;7.80;99.90;;;;;;5048228;28;20192;-78
2020/12/17 04:30:41;;;;;;;23.63;13.00;;;7.70;99.90;;;;;;5051516;28;20559;-78
2020/12/17 04:33:07;;;;;;;23.67;12.47;;;7.80;99.90;;;;;;5044558;28;20428;-78
2020/12/17 04:35:33;;;;;;;22.43;13.70;;;7.80;99.90;;;;;;5047563;28;20223;-78
2020/12/17 04:37:58;;;;;;;24.83;13.37;;;7.80;99.90;;;;;;5049276;28;20177;-79
2020/12/17 04:40:25;;;;;;;21.33;12.30;;;7.80;99.90;;;;;;5047838;28;20627;-78
2020/12/17 04:42:51;;;;;;;21.17;12.23;;;7.90;99.90;;;;;;5041188;28;20522;-78
2020/12/17 04:45:19;;;;;;;23.70;13.57;;;7.90;99.90;;;;;;5041766;28;20484;-78
2020/12/17 04:47:46;;;;;;;19.30;12.43;;;7.90;99.90;;;;;;5045231;28;20538;-78
2020/12/17 04:50:15;;;;;;;17.00;11.17;;;7.90;99.90;;;;;;5038251;28;20925;-78
2020/12/17 04:52:43;;;;;;;21.20;11.60;;;7.80;99.90;;;;;;5047426;28;20431;-78
2020/12/17 04:55:10;;;;;;;18.17;12.03;;;7.80;99.90;;;;;;5046302;28;20963;-78
2020/12/17 04:57:46;;;;;;;15.90;10.47;;;7.80;99.90;;;;;;5047598;28;20475;-77
2020/12/17 05:00:15;;;;;;;17.20;12.93;;;7.80;99.90;;;;;;5043847;28;20818;-78
2020/12/17 05:02:45;;;;;;;17.17;11.53;;;7.70;99.90;;;;;;5044970;28;20921;-78
2020/12/17 05:05:11;;;;;;;20.07;12.53;;;7.80;99.90;;;;;;5040763;28;20766;-77
2020/12/17 05:07:38;;;;;;;19.00;12.73;;;7.80;99.90;;;;;;5041066;28;20939;-77
2020/12/17 05:10:04;;;;;;;17.30;11.90;;;7.80;99.90;;;;;;5044783;28;20458;-78
2020/12/17 05:12:31;;;;;;;19.90;12.70;;;7.80;99.90;;;;;;5044565;28;20760;-78
2020/12/17 05:14:57;;;;;;;22.33;12.63;;;7.80;99.90;;;;;;5046801;28;20467;-78
2020/12/17 05:17:23;;;;;;;21.20;11.20;;;7.80;99.90;;;;;;5059136;28;20436;-77
2020/12/17 05:19:52;;;;;;;18.53;12.20;;;7.80;99.90;;;;;;5048110;28;20443;-78
2020/12/17 05:22:19;;;;;;;20.83;12.50;;;7.80;99.90;;;;;;5037840;28;20960;-78
2020/12/17 05:24:46;;;;;;;20.57;11.70;;;7.80;99.90;;;;;;5039780;28;20472;-78
2020/12/17 05:27:13;;;;;;;19.70;11.47;;;7.80;99.90;;;;;;5049365;28;20432;-78
2020/12/17 05:29:40;;;;;;;18.40;11.20;;;7.70;99.90;;;;;;5046262;28;20477;-77
2020/12/17 05:32:07;;;;;;;16.70;12.07;;;7.80;99.90;;;;;;5047841;28;20527;-78
2020/12/17 05:34:34;;;;;;;17.53;11.23;;;7.80;99.90;;;;;;5045782;28;20522;-78
2020/12/17 05:37:00;;;;;;;20.57;12.33;;;7.80;99.90;;;;;;5049355;28;20908;-77
2020/12/17 05:39:27;;;;;;;20.70;11.23;;;7.80;99.90;;;;;;5046841;28;20494;-78
2020/12/17 05:41:54;;;;;;;16.30;11.30;;;7.80;99.90;;;;;;5049520;28;20198;-78
2020/12/17 05:44:27;;;;;;;18.20;12.20;;;7.80;99.90;;;;;;5046879;28;20489;-77
2020/12/17 05:46:54;;;;;;;18.50;10.43;;;7.80;99.90;;;;;;5046520;28;20485;-77
2020/12/17 05:49:28;;;;;;;17.67;11.77;;;7.70;99.90;;;;;;5045277;28;20447;-78
2020/12/17 05:52:20;;;;;;;18.37;10.73;;;7.90;99.90;;;;;;5044868;28;20415;-77
2020/12/17 05:54:52;;;;;;;18.13;11.80;;;7.80;99.90;;;;;;5046581;28;20438;-77
2020/12/17 05:57:18;;;;;;;18.00;12.40;;;7.70;99.90;;;;;;5046801;28;20436;-78
2020/12/17 05:59:58;;;;;;;19.10;11.60;;;7.70;99.90;;;;;;5045909;28;20479;-78
2020/12/17 06:02:27;;;;;;;17.20;11.80;;;7.80;99.90;;;;;;5047322;28;20996;-77
2020/12/17 06:05:12;;;;;;;18.50;12.10;;;7.80;99.90;;;;;;5042811;28;20424;-77
2020/12/17 06:07:41;;;;;;;14.87;10.77;;;7.80;99.90;;;;;;5042065;28;20435;-78
2020/12/17 06:10:08;;;;;;;16.50;11.90;;;7.80;99.90;;;;;;5049612;28;20482;-78
2020/12/17 06:12:35;;;;;;;17.30;11.93;;;7.70;99.90;;;;;;5045363;28;20785;-78
2020/12/17 06:15:05;;;;;;;16.23;12.20;;;7.70;99.90;;;;;;5046419;28;20450;-78
2020/12/17 06:17:43;;;;;;;17.10;11.33;;;7.70;99.90;;;;;;5045884;28;20447;-77
2020/12/17 06:20:09;;;;;;;17.37;12.13;;;7.80;99.90;;;;;;5035795;28;20435;-77
2020/12/17 06:22:35;;;;;;;16.53;11.70;;;7.80;99.90;;;;;;5045589;28;20431;-77
2020/12/17 06:25:01;;;;;;;20.13;12.30;;;7.80;99.90;;;;;;5049356;28;20266;-78
2020/12/17 06:27:31;;;;;;;17.40;11.37;;;7.80;99.90;;;;;;5044773;28;20209;-77
2020/12/17 06:30:08;;;;;;;15.43;11.13;;;7.80;99.90;;;;;;5046743;28;20173;-78
2020/12/17 06:32:35;;;;;;;17.33;11.13;;;7.90;99.90;;;;;;5043667;28;20570;-78
2020/12/17 06:35:05;;;;;;;18.07;10.43;;;7.80;99.90;;;;;;5045312;28;20501;-78
2020/12/17 06:37:34;;;;;;;18.47;11.23;;;7.90;99.90;;;;;;5046154;28;20446;-78
2020/12/17 06:40:00;;;;;;;18.60;12.07;;;7.90;99.90;;;;;;5045982;28;20903;-77
2020/12/17 06:42:39;;;;;;;22.03;11.83;;;7.90;99.90;;;;;;5045986;28;20534;-78
2020/12/17 06:45:23;;;;;;;16.73;11.87;;;7.90;99.90;;;;;;5049598;28;20285;-78
2020/12/17 06:47:49;;;;;;;15.57;9.83;;;7.90;99.90;;;;;;5047201;28;20432;-77
2020/12/17 06:50:23;;;;;;;18.40;11.50;;;7.90;99.90;;;;;;5045710;28;20435;-78
2020/12/17 06:53:09;;;;;;;17.60;12.27;;;7.90;99.90;;;;;;5040147;28;20432;-78
2020/12/17 06:55:49;;;;;;;19.27;11.27;;;7.90;99.90;;;;;;5051082;28;20822;-78
2020/12/17 06:58:25;;;;;;;15.03;10.90;;;7.90;99.90;;;;;;5050885;28;20431;-78
2020/12/17 07:00:55;;;;;;;18.10;11.57;;;7.80;99.90;;;;;;5048812;28;20443;-78
2020/12/17 07:03:47;;;;;;;21.93;12.83;;;7.80;99.90;;;;;;5051773;28;20964;-77
2020/12/17 07:06:19;;;;;;;19.40;12.00;;;7.90;99.90;;;;;;5048945;28;20958;-77
2020/12/17 07:08:52;;;;;;;19.20;11.87;;;7.90;99.90;;;;;;5051740;28;20428;-78
2020/12/17 07:11:39;;;;;;;19.50;12.50;;;7.90;99.90;;;;;;5047898;28;20438;-77
2020/12/17 07:14:24;;;;;;;19.50;11.37;;;7.80;99.90;;;;;;5042855;28;20888;-77
2020/12/17 07:17:02;;;;;;;28.43;12.10;;;7.80;99.90;;;;;;5045169;28;20990;-77
2020/12/17 07:19:42;;;;;;;15.57;11.33;;;7.80;99.90;;;;;;5042839;28;20482;-77
2020/12/17 07:22:10;;;;;;;15.80;11.03;;;7.80;99.90;;;;;;5048027;28;20435;-77
2020/12/17 07:24:53;;;;;;;18.93;12.03;;;7.80;99.90;;;;;;5047866;28;20442;-77
2020/12/17 07:27:23;;;;;;;17.80;10.60;;;7.80;99.90;;;;;;5045917;28;20435;-77
2020/12/17 07:29:58;;;;;;;14.57;10.93;;;7.80;99.90;;;;;;5044924;28;20418;-78
2020/12/17 07:32:46;;;;;;;15.43;11.00;;;7.80;99.90;;;;;;5041735;28;20482;-77
2020/12/17 07:35:12;;;;;;;18.93;11.23;;;7.80;99.90;;;;;;5042155;28;20432;-78
2020/12/17 07:37:49;;;;;;;20.00;11.10;;;7.80;99.90;;;;;;5061709;28;20439;-77
2020/12/17 07:40:19;;;;;;;15.53;11.27;;;7.80;99.90;;;;;;5043276;28;20755;-78
2020/12/17 07:43:04;;;;;;;16.23;11.27;;;7.90;99.90;;;;;;5043141;28;20445;-77
2020/12/17 07:45:36;;;;;;;15.57;10.57;;;7.80;99.90;;;;;;5046703;28;20458;-77
2020/12/17 07:48:02;;;;;;;17.53;12.80;;;7.90;99.90;;;;;;5038676;28;20439;-78
2020/12/17 07:50:40;;;;;;;16.97;10.80;;;7.90;99.90;;;;;;5041337;28;20473;-77
2020/12/17 07:53:25;;;;;;;16.83;11.43;;;7.90;99.90;;;;;;5046914;28;20515;-77
2020/12/17 07:55:54;;;;;;;18.53;12.07;;;7.90;99.90;;;;;;5041461;28;20990;-76
2020/12/17 07:58:20;;;;;;;17.30;10.87;;;7.90;99.90;;;;;;5043896;28;20515;-76
2020/12/17 08:00:46;;;;;;;19.80;12.20;;;8.00;99.90;;;;;;5047480;28;21268;-76
2020/12/17 08:03:12;;;;;;;17.27;12.20;;;8.00;99.90;;;;;;5042118;28;20481;-76
2020/12/17 08:05:41;;;;;;;20.53;12.40;;;8.00;99.90;;;;;;5046223;28;20591;-77
2020/12/17 08:08:07;;;;;;;13.67;10.60;;;7.90;99.90;;;;;;5058194;28;20428;-76
2020/12/17 08:10:42;;;;;;;15.27;10.93;;;7.90;99.90;;;;;;5039262;28;20517;-77
2020/12/17 08:13:09;;;;;;;19.10;11.70;;;7.90;99.90;;;;;;5042618;28;20542;-77
2020/12/17 08:15:35;;;;;;;15.77;11.17;;;7.90;99.90;;;;;;5041929;28;20527;-77
2020/12/17 08:18:02;;;;;;;17.60;11.27;;;7.90;99.90;;;;;;5041894;28;20463;-77
2020/12/17 08:20:29;;;;;;;15.43;10.80;;;7.90;99.90;;;;;;5044267;28;20433;-77
2020/12/17 08:22:55;;;;;;;16.47;10.67;;;7.90;99.90;;;;;;5043761;28;20795;-77
2020/12/17 08:25:22;;;;;;;15.67;10.17;;;8.00;99.90;;;;;;5039748;28;20491;-77
2020/12/17 08:27:51;;;;;;;18.20;12.10;;;8.00;99.90;;;;;;5048552;28;20818;-76
2020/12/17 08:30:17;;;;;;;17.03;11.20;;;8.00;99.90;;;;;;5039328;28;20437;-77
2020/12/17 08:32:54;;;;;;;19.90;11.67;;;8.00;99.90;;;;;;5034476;28;20432;-75
2020/12/17 08:35:24;;;;;;;18.80;10.83;;;8.00;99.90;;;;;;5044121;28;20822;-75
2020/12/17 08:37:54;;;;;;;15.27;10.33;;;8.00;99.90;;;;;;5047175;28;20487;-76
2020/12/17 08:40:28;;;;;;;18.13;11.70;;;8.00;99.90;;;;;;5041839;28;21319;-79
2020/12/17 08:43:01;;;;;;;15.80;10.37;;;8.00;99.90;;;;;;5048144;28;20486;-79
2020/12/17 08:45:28;;;;;;;17.93;10.10;;;8.00;99.90;;;;;;5042260;28;20456;-79
2020/12/17 08:48:01;;;;;;;13.00;10.40;;;8.00;99.90;;;;;;5041530;28;20439;-79
2020/12/17 08:50:27;;;;;;;14.13;10.57;;;8.10;99.90;;;;;;5039677;28;20427;-78
2020/12/17 08:52:54;;;;;;;13.87;10.47;;;8.10;99.90;;;;;;5037976;28;22192;-79
2020/12/17 08:55:23;;;;;;;19.27;11.07;;;8.10;99.90;;;;;;5040824;28;20936;-78
2020/12/17 08:57:49;;;;;;;14.13;11.20;;;8.10;99.90;;;;;;5040528;28;20427;-77
2020/12/17 09:00:17;;;;;;;16.83;11.20;;;8.20;99.90;;;;;;5039433;28;20433;-79
2020/12/17 09:02:44;;;;;;;14.50;11.20;;;8.20;99.90;;;;;;5040869;28;20268;-78
2020/12/17 09:05:14;;;;;;;16.53;9.80;;;8.20;99.90;;;;;;5046544;28;20468;-79
2020/12/17 09:07:49;;;;;;;17.23;11.33;;;8.20;99.90;;;;;;5047190;28;20839;-79
2020/12/17 09:10:16;;;;;;;19.17;10.03;;;8.20;99.90;;;;;;5046398;28;20419;-79
2020/12/17 09:12:42;;;;;;;16.57;10.97;;;8.20;99.90;;;;;;5045269;28;20431;-78
2020/12/17 09:15:13;;;;;;;18.47;11.37;;;8.20;99.90;;;;;;5043335;28;20454;-79
2020/12/17 09:17:39;;;;;;;16.20;11.03;;;8.30;99.90;;;;;;5047148;28;20493;-78
2020/12/17 09:20:22;;;;;;;14.13;9.97;;;8.30;99.90;;;;;;5050401;28;20427;-79
2020/12/17 09:22:48;;;;;;;16.63;9.87;;;8.30;99.90;;;;;;5045397;28;20511;-78
2020/12/17 09:25:15;;;;;;;15.77;11.47;;;8.30;99.90;;;;;;5040674;28;21002;-78
2020/12/17 09:27:43;;;;;;;15.77;10.33;;;8.30;99.90;;;;;;5048551;28;20427;-79
2020/12/17 09:30:22;;;;;;;14.47;9.80;;;8.30;99.90;;;;;;5041950;28;20435;-79
2020/12/17 09:32:59;;;;;;;17.57;11.00;;;8.30;99.90;;;;;;5046850;28;20539;-79
2020/12/17 09:35:30;;;;;;;13.33;11.17;;;8.30;99.90;;;;;;5064295;28;20477;-79
2020/12/17 09:38:04;;;;;;;14.70;9.73;;;8.30;99.90;;;;;;5062713;28;20427;-79
2020/12/17 09:40:31;;;;;;;15.73;10.43;;;8.30;99.90;;;;;;5047762;28;20447;-79
2020/12/17 09:43:05;;;;;;;17.17;11.87;;;8.30;99.90;;;;;;5049152;28;20435;-79
2020/12/17 09:45:35;;;;;;;14.30;10.07;;;8.30;99.90;;;;;;5039128;28;20470;-79
2020/12/17 09:48:22;;;;;;;14.27;10.33;;;8.30;99.90;;;;;;5036497;28;20431;-79
2020/12/17 09:50:55;;;;;;;17.60;10.63;;;8.30;99.90;;;;;;5043285;28;20427;-79
2020/12/17 09:53:22;;;;;;;17.90;11.77;;;8.40;99.90;;;;;;5048421;28;20440;-79
2020/12/17 09:55:48;;;;;;;18.37;11.13;;;8.50;99.90;;;;;;5045836;28;20904;-79
2020/12/17 09:58:14;;;;;;;14.23;10.73;;;8.50;99.90;;;;;;5047258;28;20436;-79
2020/12/17 10:00:40;;;;;;;15.80;10.50;;;8.50;99.90;;;;;;5045965;28;20477;-79
2020/12/17 10:03:05;;;;;;;15.20;10.77;;;8.50;99.90;;;;;;5045970;28;20247;-79
2020/12/17 10:05:31;;;;;;;15.70;10.60;;;8.40;99.90;;;;;;5039051;28;20771;-78
2020/12/17 10:07:57;;;;;;;18.20;11.83;;;8.40;99.90;;;;;;5044894;28;20182;-78
2020/12/17 10:10:23;;;;;;;23.93;11.90;;;8.40;99.90;;;;;;5045284;28;20193;-78
2020/12/17 10:12:49;;;;;;;19.20;12.50;;;8.50;99.90;;;;;;5033596;28;20184;-78
2020/12/17 10:15:15;;;;;;;18.87;11.83;;;8.50;99.90;;;;;;5045893;28;20555;-78
2020/12/17 10:17:40;;;;;;;17.83;12.30;;;8.50;99.90;;;;;;5044036;28;20445;-77
2020/12/17 10:20:07;;;;;;;26.43;14.10;;;8.50;99.90;;;;;;5040409;28;20189;-77
2020/12/17 10:22:33;;;;;;;20.87;12.10;;;8.50;99.90;;;;;;5041663;28;20180;-78
2020/12/17 10:24:59;;;;;;;18.53;13.33;;;8.50;99.90;;;;;;5044976;28;20446;-78
2020/12/17 10:27:25;;;;;;;20.23;12.90;;;8.50;99.90;;;;;;5048620;28;23013;-76
2020/12/17 10:29:51;;;;;;;22.50;12.87;;;8.60;99.90;;;;;;5045879;28;20758;-77
2020/12/17 10:32:18;;;;;;;19.10;13.40;;;8.60;99.90;;;;;;5051183;28;20183;-77
2020/12/17 10:34:44;;;;;;;17.77;12.40;;;8.60;99.90;;;;;;5048059;28;20181;-76
2020/12/17 10:37:10;;;;;;;18.10;11.80;;;8.50;99.90;;;;;;5050724;28;20532;-77
2020/12/17 10:39:36;;;;;;;19.27;12.40;;;8.60;99.90;;;;;;5044157;28;20454;-76
2020/12/17 10:42:05;;;;;;;21.23;14.17;;;8.60;99.90;;;;;;5049885;28;20424;-76
2020/12/17 10:44:32;;;;;;;19.30;12.73;;;8.60;99.90;;;;;;5048954;28;20319;-76
2020/12/17 10:47:02;;;;;;;20.23;13.40;;;8.60;99.90;;;;;;5059186;28;20443;-76
2020/12/17 10:49:27;;;;;;;17.53;12.30;;;8.60;99.90;;;;;;5048891;28;20466;-76
2020/12/17 10:51:54;;;;;;;20.10;13.63;;;8.60;99.90;;;;;;5037016;28;20431;-77
2020/12/17 10:54:19;;;;;;;16.10;12.73;;;8.60;99.90;;;;;;5043560;28;20177;-76
2020/12/17 10:56:46;;;;;;;19.90;13.07;;;8.60;99.90;;;;;;5051045;28;20811;-76
2020/12/17 10:59:12;;;;;;;20.30;13.60;;;8.70;99.90;;;;;;5045230;28;20189;-76
2020/12/17 11:01:38;;;;;;;22.00;13.20;;;8.70;99.90;;;;;;5061607;28;20776;-77
2020/12/17 11:04:03;;;;;;;22.77;13.70;;;8.80;99.90;;;;;;5043341;28;20789;-76
2020/12/17 11:06:29;;;;;;;19.13;11.97;;;8.70;99.90;;;;;;5047214;28;20201;-76
2020/12/17 11:08:55;;;;;;;21.77;13.87;;;8.70;99.90;;;;;;5045640;28;20188;-76
2020/12/17 11:11:21;;;;;;;15.90;11.57;;;8.70;99.90;;;;;;5047040;28;20177;-76
2020/12/17 11:13:46;;;;;;;21.93;12.97;;;8.60;99.90;;;;;;5044284;28;20188;-78
2020/12/17 11:16:12;;;;;;;18.43;11.90;;;8.70;99.90;;;;;;5049647;28;20319;-77
2020/12/17 11:18:39;;;;;;;19.27;13.57;;;8.70;99.90;;;;;;5050374;28;20434;-76
2020/12/17 11:21:06;;;;;;;19.77;12.97;;;8.70;99.90;;;;;;5046084;28;20473;-77
2020/12/17 11:23:33;;;;;;;19.27;13.97;;;8.70;99.90;;;;;;5043503;28;20432;-77
2020/12/17 11:26:00;;;;;;;24.40;14.80;;;8.80;99.90;;;;;;5048083;28;20457;-77
2020/12/17 11:28:26;;;;;;;15.93;12.73;;;8.80;99.90;;;;;;5045843;28;20436;-76
2020/12/17 11:30:52;;;;;;;21.13;13.60;;;8.80;99.90;;;;;;5031345;28;20459;-76
2020/12/17 11:33:17;;;;;;;19.13;13.50;;;8.80;99.90;;;;;;5048788;28;20269;-76
2020/12/17 11:35:43;;;;;;;24.73;15.20;;;8.80;99.90;;;;;;5045949;28;20188;-76
2020/12/17 11:38:09;;;;;;;21.40;14.60;;;8.80;99.90;;;;;;5046587;28;20205;-76
2020/12/17 11:40:35;;;;;;;17.33;13.47;;;8.70;99.90;;;;;;5046458;28;20564;-76
2020/12/17 11:43:00;;;;;;;19.07;13.97;;;8.70;99.90;;;;;;5048211;28;20527;-76
2020/12/17 11:45:26;;;;;;;22.83;13.80;;;8.70;99.90;;;;;;5049552;28;20201;-76
2020/12/17 11:47:53;;;;;;;23.47;12.87;;;8.80;99.90;;;;;;5049827;28;20264;-77
2020/12/17 11:50:19;;;;;;;14.90;11.87;;;8.80;99.90;;;;;;5043746;28;20180;-76
2020/12/17 11:52:45;;;;;;;16.10;12.20;;;8.80;99.90;;;;;;5046585;28;20808;-76
2020/12/17 11:55:11;;;;;;;16.60;12.03;;;8.90;99.90;;;;;;5047151;28;20428;-75
2020/12/17 11:57:37;;;;;;;25.90;14.87;;;8.80;99.90;;;;;;5047093;28;20182;-76
2020/12/17 12:00:07;;;;;;;19.30;14.10;;;8.80;99.90;;;;;;5046864;28;20432;-76
2020/12/17 12:02:33;;;;;;;14.97;12.00;;;8.90;99.90;;;;;;5046193;28;20173;-76
2020/12/17 12:04:59;;;;;;;16.27;12.53;;;8.80;99.90;;;;;;5047748;28;20439;-76
2020/12/17 12:07:25;;;;;;;15.87;12.47;;;8.90;99.90;;;;;;5045365;28;20439;-76
2020/12/17 12:09:52;;;;;;;21.77;14.13;;;9.00;99.90;;;;;;5043195;28;20571;-76
2020/12/17 12:12:18;;;;;;;18.57;12.20;;;9.00;99.90;;;;;;5044777;28;20920;-76
2020/12/17 12:14:44;;;;;;;19.03;12.43;;;9.00;99.90;;;;;;5050444;28;20454;-76
2020/12/17 12:17:09;;;;;;;16.20;12.17;;;9.10;99.90;;;;;;5052027;28;20188;-75
2020/12/17 12:19:35;;;;;;;15.17;12.97;;;9.00;99.90;;;;;;5046004;28;20205;-76
2020/12/17 12:22:01;;;;;;;18.70;12.67;;;9.10;99.90;;;;;;5047965;28;20234;-76
2020/12/17 12:24:27;;;;;;;14.33;11.40;;;9.10;99.90;;;;;;5047427;28;20185;-76
2020/12/17 12:26:52;;;;;;;17.83;13.03;;;9.10;99.90;;;;;;5046480;28;20205;-76
2020/12/17 12:29:18;;;;;;;19.97;11.10;;;9.10;99.90;;;;;;5047481;28;20177;-76
2020/12/17 12:31:44;;;;;;;14.67;11.33;;;9.10;99.90;;;;;;5051067;28;20180;-76
2020/12/17 12:34:10;;;;;;;13.93;11.80;;;9.20;99.90;;;;;;5048296;28;20264;-75
2020/12/17 12:36:36;;;;;;;12.57;10.33;;;9.20;99.90;;;;;;5049276;28;22530;-76
2020/12/17 12:39:02;;;;;;;12.87;11.03;;;9.20;99.90;;;;;;5048079;28;20204;-76
2020/12/17 12:41:28;;;;;;;14.80;12.23;;;9.30;99.90;;;;;;5049010;28;20630;-76
2020/12/17 12:43:53;;;;;;;15.00;10.50;;;9.30;99.90;;;;;;5048244;28;20441;-75